Time;durP1;ratioP1;P1;durP2;ratioP2;P2;SDS_P1;SDS_P2;PMS_P1;PMS_P2;Temp;Humidity;BMP_temperature;BMP_pressure;BME280_temperature;BME280_humidity;BME280_pressure;Samples;Min_cycle;Max_cycle;Signal;HPM_P1;HPM_P2
2021/01/11 00:00:11;;;;;;;12.40;6.25;;;7.30;90.30;;;;;;5094049;28;20028;-61
2021/01/11 00:02:37;;;;;;;16.88;7.25;;;7.30;90.30;;;;;;5093659;28;20059;-61
2021/01/11 00:05:05;;;;;;;27.08;9.85;;;7.40;90.30;;;;;;5093121;28;20075;-61
2021/01/11 00:07:30;;;;;;;12.70;5.80;;;7.40;90.20;;;;;;5093990;28;20047;-61
2021/01/11 00:09:56;;;;;;;24.50;9.82;;;7.40;90.10;;;;;;5093596;28;20488;-61
2021/01/11 00:12:22;;;;;;;23.92;10.75;;;7.50;90.10;;;;;;5093100;28;20062;-61
2021/01/11 00:14:47;;;;;;;29.50;11.75;;;7.50;90.10;;;;;;5093524;28;20376;-61
2021/01/11 00:17:13;;;;;;;14.30;5.85;;;7.40;90.00;;;;;;5093580;28;20074;-61
2021/01/11 00:19:38;;;;;;;11.15;5.28;;;7.40;90.00;;;;;;5092904;28;20091;-61
2021/01/11 00:22:04;;;;;;;24.73;9.23;;;7.40;90.00;;;;;;5093701;28;20020;-61
2021/01/11 00:24:30;;;;;;;34.10;11.35;;;7.50;90.00;;;;;;5092994;28;20399;-61
2021/01/11 00:26:58;;;;;;;19.65;9.52;;;7.40;89.90;;;;;;5092766;28;20020;-61
2021/01/11 00:29:25;;;;;;;14.25;8.02;;;7.50;90.00;;;;;;5093479;28;20383;-61
2021/01/11 00:31:51;;;;;;;27.38;12.82;;;7.50;90.00;;;;;;5093065;28;20055;-61
2021/01/11 00:34:16;;;;;;;27.20;10.63;;;7.40;90.00;;;;;;5092807;28;20074;-61
2021/01/11 00:36:50;;;;;;;16.17;7.32;;;7.40;90.00;;;;;;5093352;28;20483;-61
2021/01/11 00:39:16;;;;;;;19.02;10.43;;;7.40;90.10;;;;;;5093381;28;20036;-61
2021/01/11 00:41:41;;;;;;;25.00;11.60;;;7.40;90.10;;;;;;5092606;28;20028;-61
2021/01/11 00:44:07;;;;;;;18.70;7.63;;;7.40;90.10;;;;;;5092935;28;20464;-61
2021/01/11 00:46:33;;;;;;;22.45;10.40;;;7.40;90.10;;;;;;5092373;28;20035;-61
2021/01/11 00:48:58;;;;;;;27.40;8.20;;;7.40;90.10;;;;;;5097040;28;20506;-61
2021/01/11 00:51:25;;;;;;;23.13;10.85;;;7.40;90.10;;;;;;5091888;28;20020;-61
2021/01/11 00:53:58;;;;;;;19.85;10.00;;;7.40;90.10;;;;;;5091222;28;20479;-61
2021/01/11 00:56:24;;;;;;;28.55;11.85;;;7.40;90.10;;;;;;5092905;28;20039;-61
2021/01/11 00:58:50;;;;;;;11.57;6.03;;;7.40;90.10;;;;;;5092938;28;20036;-61
2021/01/11 01:01:20;;;;;;;9.00;5.45;;;7.40;90.20;;;;;;5096042;28;20522;-61
2021/01/11 01:03:50;;;;;;;26.60;12.27;;;7.40;90.20;;;;;;5092077;28;20430;-61
2021/01/11 01:06:16;;;;;;;27.73;10.57;;;7.40;90.20;;;;;;5096542;28;20028;-61
2021/01/11 01:08:42;;;;;;;31.77;6.63;;;7.40;90.10;;;;;;5105228;28;20043;-61
2021/01/11 01:11:10;;;;;;;19.85;8.85;;;7.40;90.10;;;;;;5093962;28;20028;-61
2021/01/11 01:13:37;;;;;;;17.63;7.93;;;7.40;90.10;;;;;;5106861;28;20032;-61
2021/01/11 01:16:04;;;;;;;23.48;10.13;;;7.40;90.10;;;;;;5092066;28;20016;-61
2021/01/11 01:18:30;;;;;;;30.30;13.90;;;7.40;90.10;;;;;;5106924;28;20031;-61
2021/01/11 01:20:55;;;;;;;20.60;11.25;;;7.40;90.00;;;;;;5100985;28;20023;-62
2021/01/11 01:23:21;;;;;;;21.67;10.02;;;7.40;90.00;;;;;;5098083;28;20077;-62
2021/01/11 01:25:47;;;;;;;20.48;9.52;;;7.40;90.00;;;;;;5092618;28;20043;-61
2021/01/11 01:28:12;;;;;;;21.92;10.02;;;7.40;90.00;;;;;;5092965;28;20029;-61
2021/01/11 01:30:38;;;;;;;23.60;8.73;;;7.40;90.00;;;;;;5091461;28;20440;-61
2021/01/11 01:33:04;;;;;;;14.48;7.43;;;7.40;90.10;;;;;;5092872;28;20119;-61
2021/01/11 01:35:30;;;;;;;20.25;9.70;;;7.50;90.10;;;;;;5092402;28;20049;-61
2021/01/11 01:37:56;;;;;;;20.77;9.75;;;7.40;90.10;;;;;;5103024;28;20023;-61
2021/01/11 01:40:24;;;;;;;24.67;11.52;;;7.40;90.40;;;;;;5103336;28;20028;-61
2021/01/11 01:42:51;;;;;;;22.38;12.43;;;7.40;90.10;;;;;;5095538;28;20043;-61
2021/01/11 01:45:17;;;;;;;31.17;12.02;;;7.40;90.10;;;;;;5096691;28;20047;-61
2021/01/11 01:47:43;;;;;;;24.17;12.55;;;7.40;90.20;;;;;;5096343;28;20329;-61
2021/01/11 01:50:11;;;;;;;17.73;9.55;;;7.30;90.20;;;;;;5095966;28;20078;-61
2021/01/11 01:52:38;;;;;;;19.27;7.82;;;7.30;90.20;;;;;;5096247;28;20433;-61
2021/01/11 01:55:05;;;;;;;21.70;8.98;;;7.30;90.20;;;;;;5096365;28;20028;-61
2021/01/11 01:57:31;;;;;;;18.15;7.35;;;7.30;90.20;;;;;;5095405;28;20032;-61
2021/01/11 01:59:58;;;;;;;28.35;13.48;;;7.40;90.30;;;;;;5096485;28;20020;-61
2021/01/11 02:02:24;;;;;;;24.45;11.43;;;7.40;90.20;;;;;;5096429;28;20020;-61
2021/01/11 02:04:49;;;;;;;30.15;12.05;;;7.40;90.20;;;;;;5095433;28;20532;-61
2021/01/11 02:07:44;;;;;;;23.00;10.32;;;7.30;90.20;;;;;;5096277;28;20122;-61
2021/01/11 02:10:29;;;;;;;29.05;14.00;;;7.40;90.30;;;;;;5097282;28;20052;-61
2021/01/11 02:13:23;;;;;;;29.88;13.43;;;7.30;90.20;;;;;;5109551;28;20084;-61
2021/01/11 02:16:09;;;;;;;12.05;5.85;;;7.40;90.30;;;;;;5087583;28;20067;-61
2021/01/11 02:18:41;;;;;;;32.45;15.10;;;7.30;90.30;;;;;;5095312;28;20028;-61
2021/01/11 02:21:40;;;;;;;25.10;11.13;;;7.30;90.30;;;;;;5096055;28;20032;-61
2021/01/11 02:24:23;;;;;;;34.03;12.35;;;7.40;90.30;;;;;;5084142;28;20126;-61
2021/01/11 02:27:13;;;;;;;22.77;10.77;;;7.40;90.30;;;;;;5115591;28;20034;-61
2021/01/11 02:29:57;;;;;;;26.98;10.95;;;7.40;90.20;;;;;;5116232;28;20144;-61
2021/01/11 02:32:25;;;;;;;26.60;11.77;;;7.30;90.20;;;;;;5094995;28;20050;-61
2021/01/11 02:34:53;;;;;;;23.55;12.07;;;7.40;90.20;;;;;;5095592;28;20032;-61
2021/01/11 02:37:19;;;;;;;27.77;13.88;;;7.30;90.20;;;;;;5095418;28;20388;-61
2021/01/11 02:39:46;;;;;;;13.90;6.20;;;7.30;90.20;;;;;;5093552;28;20143;-61
2021/01/11 02:42:12;;;;;;;9.52;5.40;;;7.30;90.20;;;;;;5095482;28;20024;-61
2021/01/11 02:44:37;;;;;;;20.52;9.93;;;7.30;90.20;;;;;;5095405;28;20092;-61
2021/01/11 02:47:03;;;;;;;24.98;11.48;;;7.30;90.20;;;;;;5095671;28;20364;-61
2021/01/11 02:49:38;;;;;;;17.23;9.77;;;7.30;90.20;;;;;;5108332;27;20208;-61
2021/01/11 02:52:18;;;;;;;29.50;12.88;;;7.30;90.20;;;;;;5095342;28;20026;-61
2021/01/11 02:54:51;;;;;;;25.58;11.93;;;7.30;90.20;;;;;;5094733;28;20066;-61
2021/01/11 02:57:43;;;;;;;27.77;12.48;;;7.30;90.20;;;;;;5095152;28;20039;-61
2021/01/11 03:00:11;;;;;;;17.48;7.93;;;7.30;90.10;;;;;;5094715;28;20043;-61
2021/01/11 03:02:42;;;;;;;25.13;11.95;;;7.30;90.10;;;;;;5095130;28;20184;-61
2021/01/11 03:05:09;;;;;;;20.35;9.55;;;7.30;90.10;;;;;;5105797;28;20044;-61
2021/01/11 03:07:35;;;;;;;25.77;13.40;;;7.30;90.10;;;;;;5097436;28;20028;-61
2021/01/11 03:10:01;;;;;;;23.80;11.20;;;7.20;90.10;;;;;;5094840;28;20024;-61
2021/01/11 03:12:27;;;;;;;29.10;11.88;;;7.30;90.10;;;;;;5095104;28;20032;-61
2021/01/11 03:14:53;;;;;;;25.10;13.57;;;7.30;90.10;;;;;;5094126;28;20028;-61
2021/01/11 03:17:19;;;;;;;24.00;10.52;;;7.20;90.10;;;;;;5095038;28;20090;-61
2021/01/11 03:19:44;;;;;;;23.73;11.40;;;7.20;90.20;;;;;;5094657;28;20024;-61
2021/01/11 03:22:10;;;;;;;29.38;13.77;;;7.20;90.30;;;;;;5094004;28;20434;-61
2021/01/11 03:24:35;;;;;;;26.98;11.88;;;7.20;90.30;;;;;;5094533;28;20131;-61
2021/01/11 03:27:01;;;;;;;17.38;10.07;;;7.20;90.20;;;;;;5094741;28;20024;-61
2021/01/11 03:29:28;;;;;;;25.67;11.50;;;7.20;90.30;;;;;;5094099;28;20028;-61
2021/01/11 03:31:53;;;;;;;20.75;11.23;;;7.20;90.30;;;;;;5094326;28;20044;-61
2021/01/11 03:34:19;;;;;;;26.17;12.70;;;7.20;90.30;;;;;;5093267;28;20028;-61
2021/01/11 03:36:46;;;;;;;23.00;10.88;;;7.20;90.30;;;;;;5107911;28;20096;-61
2021/01/11 03:39:12;;;;;;;22.45;12.30;;;7.20;90.30;;;;;;5094384;28;20036;-61
2021/01/11 03:41:42;;;;;;;19.08;8.35;;;7.20;90.20;;;;;;5094331;28;20399;-61
2021/01/11 03:44:09;;;;;;;27.52;12.57;;;7.20;90.30;;;;;;5093470;28;20051;-61
2021/01/11 03:46:35;;;;;;;17.58;9.45;;;7.20;90.20;;;;;;5094262;28;20035;-61
2021/01/11 03:49:01;;;;;;;19.65;10.15;;;7.20;90.20;;;;;;5097758;28;20387;-61
2021/01/11 03:51:26;;;;;;;26.02;11.50;;;7.20;90.20;;;;;;5103868;28;20028;-61
2021/01/11 03:53:52;;;;;;;17.77;9.25;;;7.20;90.20;;;;;;5093964;28;20028;-61
2021/01/11 03:56:20;;;;;;;32.28;13.52;;;7.30;90.20;;;;;;5094130;28;20028;-61
2021/01/11 03:58:45;;;;;;;28.23;12.38;;;7.30;90.20;;;;;;5093361;28;20165;-61
2021/01/11 04:01:11;;;;;;;7.30;5.18;;;7.20;90.10;;;;;;5093897;28;20103;-61
2021/01/11 04:03:37;;;;;;;16.67;9.35;;;7.20;90.10;;;;;;5093260;28;20386;-61
2021/01/11 04:06:03;;;;;;;22.58;10.95;;;7.30;90.20;;;;;;5093750;28;20539;-61
2021/01/11 04:08:29;;;;;;;25.73;12.60;;;7.20;90.10;;;;;;5093804;28;20028;-61
2021/01/11 04:10:56;;;;;;;25.88;13.77;;;7.20;90.20;;;;;;5093194;28;20383;-62
2021/01/11 04:13:21;;;;;;;24.05;11.88;;;7.20;90.10;;;;;;5093803;28;20427;-61
2021/01/11 04:15:47;;;;;;;27.65;12.93;;;7.20;90.10;;;;;;5093794;28;20081;-61
2021/01/11 04:18:13;;;;;;;29.92;14.85;;;7.20;90.20;;;;;;5092779;28;20380;-61
2021/01/11 04:20:39;;;;;;;21.08;9.85;;;7.20;90.20;;;;;;5093684;28;20082;-61
2021/01/11 04:23:05;;;;;;;25.92;12.55;;;7.10;90.20;;;;;;5093313;28;20024;-61
2021/01/11 04:25:32;;;;;;;23.35;10.82;;;7.20;90.20;;;;;;5092989;28;20039;-61
2021/01/11 04:27:59;;;;;;;19.38;9.25;;;7.20;90.30;;;;;;5093633;28;20414;-61
2021/01/11 04:30:25;;;;;;;24.40;11.77;;;7.20;90.20;;;;;;5093256;28;20097;-61
2021/01/11 04:32:52;;;;;;;20.77;10.95;;;7.20;90.20;;;;;;5092923;28;20063;-61
2021/01/11 04:35:20;;;;;;;24.70;10.23;;;7.20;90.20;;;;;;5093213;28;20571;-61
2021/01/11 04:37:45;;;;;;;23.98;11.55;;;7.20;90.30;;;;;;5093235;28;20540;-61
2021/01/11 04:40:12;;;;;;;11.30;6.50;;;7.10;90.20;;;;;;5092652;28;20040;-61
2021/01/11 04:43:03;;;;;;;17.48;9.27;;;7.20;90.30;;;;;;5093228;28;20471;-61
2021/01/11 04:45:30;;;;;;;26.00;13.98;;;7.20;90.30;;;;;;5092890;28;20399;-61
2021/01/11 04:47:58;;;;;;;21.00;10.40;;;7.20;90.20;;;;;;5092467;28;20039;-61
2021/01/11 04:50:24;;;;;;;23.83;12.77;;;7.20;90.20;;;;;;5093178;28;20107;-61
2021/01/11 04:52:51;;;;;;;29.63;12.40;;;7.10;90.20;;;;;;5092672;28;20024;-61
2021/01/11 04:55:17;;;;;;;23.40;12.35;;;7.20;90.30;;;;;;5093098;28;20064;-61
2021/01/11 04:57:52;;;;;;;23.90;10.95;;;7.20;90.30;;;;;;5092807;28;20502;-61
2021/01/11 05:00:23;;;;;;;19.85;9.80;;;7.10;90.30;;;;;;5092282;28;20049;-61
2021/01/11 05:02:59;;;;;;;20.50;10.35;;;7.10;90.30;;;;;;5092964;28;20024;-61
2021/01/11 05:05:27;;;;;;;18.75;10.75;;;7.10;90.40;;;;;;5093009;28;20561;-61
2021/01/11 05:07:53;;;;;;;21.05;11.05;;;7.10;90.40;;;;;;5091965;28;20494;-61
2021/01/11 05:10:27;;;;;;;17.15;8.35;;;7.10;90.40;;;;;;5092817;28;20032;-61
2021/01/11 05:12:54;;;;;;;17.02;8.65;;;7.10;90.40;;;;;;5092616;28;20043;-61
2021/01/11 05:15:24;;;;;;;28.10;14.18;;;7.10;90.40;;;;;;5092113;28;20032;-61
2021/01/11 05:17:50;;;;;;;21.75;11.00;;;7.10;90.40;;;;;;5093040;28;20049;-61
2021/01/11 05:20:20;;;;;;;23.50;13.20;;;7.10;90.40;;;;;;5092772;28;20028;-61
2021/01/11 05:22:49;;;;;;;13.88;8.23;;;7.10;90.40;;;;;;5092183;28;20361;-61
2021/01/11 05:25:19;;;;;;;24.25;12.63;;;7.10;90.40;;;;;;5092340;28;20551;-61
2021/01/11 05:28:01;;;;;;;27.58;11.13;;;7.10;90.50;;;;;;5092297;28;20059;-61
2021/01/11 05:30:31;;;;;;;22.85;11.55;;;7.00;90.50;;;;;;5092566;28;20399;-61
2021/01/11 05:32:57;;;;;;;28.50;14.13;;;7.10;90.50;;;;;;5092816;28;20460;-61
2021/01/11 05:35:24;;;;;;;29.50;12.68;;;7.10;90.50;;;;;;5091812;28;20024;-61
2021/01/11 05:37:59;;;;;;;27.10;12.95;;;7.10;90.50;;;;;;5092636;28;20028;-61
2021/01/11 05:40:29;;;;;;;30.33;14.85;;;7.00;90.50;;;;;;5092676;28;20060;-61
2021/01/11 05:42:59;;;;;;;19.20;10.45;;;7.00;90.50;;;;;;5092102;28;20035;-61
2021/01/11 05:45:28;;;;;;;22.85;11.30;;;7.00;90.50;;;;;;5106983;28;20035;-62
2021/01/11 05:48:10;;;;;;;15.65;8.65;;;7.10;90.60;;;;;;5104039;28;20035;-61
2021/01/11 05:50:40;;;;;;;26.85;11.15;;;7.10;90.60;;;;;;5100264;28;20035;-61
2021/01/11 05:53:14;;;;;;;27.65;12.32;;;7.10;90.50;;;;;;5103277;28;20475;-61
2021/01/11 05:55:40;;;;;;;20.67;11.80;;;7.10;90.50;;;;;;5098040;28;20021;-61
2021/01/11 05:58:06;;;;;;;27.13;11.63;;;7.10;90.50;;;;;;5094634;28;20032;-61
2021/01/11 06:00:35;;;;;;;20.13;10.68;;;7.10;90.70;;;;;;5097818;28;20023;-61
2021/01/11 06:03:01;;;;;;;23.48;12.05;;;7.10;90.40;;;;;;5094417;28;20432;-61
2021/01/11 06:05:28;;;;;;;28.45;15.65;;;7.10;90.40;;;;;;5097084;28;20131;-61
2021/01/11 06:07:55;;;;;;;26.48;10.95;;;7.10;90.40;;;;;;5095859;28;20416;-61
2021/01/11 06:10:22;;;;;;;28.45;14.48;;;7.10;90.40;;;;;;5094184;28;20502;-61
2021/01/11 06:12:49;;;;;;;32.10;15.02;;;7.10;90.50;;;;;;5106973;28;20024;-61
2021/01/11 06:15:17;;;;;;;28.52;13.63;;;7.10;90.50;;;;;;5100278;28;20036;-61
2021/01/11 06:17:45;;;;;;;22.30;9.85;;;7.10;90.50;;;;;;5104934;28;20043;-62
2021/01/11 06:20:15;;;;;;;31.17;14.15;;;7.10;90.50;;;;;;5103313;28;20050;-61
2021/01/11 06:22:44;;;;;;;29.40;12.95;;;7.10;90.50;;;;;;5096172;28;20069;-63
2021/01/11 06:25:25;;;;;;;16.65;8.82;;;7.10;90.50;;;;;;5107915;28;20036;-66
2021/01/11 06:28:10;;;;;;;21.98;11.98;;;7.10;90.50;;;;;;5100700;28;20071;-61
2021/01/11 06:30:36;;;;;;;35.35;12.50;;;7.10;90.50;;;;;;5105999;28;20054;-60
2021/01/11 06:33:06;;;;;;;25.35;11.52;;;7.10;90.50;;;;;;5110661;28;20067;-61
2021/01/11 06:35:33;;;;;;;24.10;12.13;;;7.10;90.50;;;;;;5110678;28;20081;-61
2021/01/11 06:38:25;;;;;;;25.13;11.40;;;7.10;90.40;;;;;;5113709;28;20028;-61
2021/01/11 06:41:04;;;;;;;33.92;15.10;;;7.10;90.40;;;;;;5111297;28;20478;-61
2021/01/11 06:43:50;;;;;;;20.63;9.95;;;7.20;90.40;;;;;;5111306;28;20028;-61
2021/01/11 06:46:42;;;;;;;30.58;13.52;;;7.10;90.40;;;;;;5109086;28;20392;-61
2021/01/11 06:49:27;;;;;;;32.80;14.85;;;7.10;90.40;;;;;;5112602;28;20024;-62
2021/01/11 06:52:04;;;;;;;24.92;11.15;;;7.10;90.40;;;;;;5100952;28;20016;-61
2021/01/11 06:54:45;;;;;;;26.77;13.50;;;7.20;90.50;;;;;;5100271;28;20032;-61
2021/01/11 06:57:13;;;;;;;25.27;12.13;;;7.10;90.40;;;;;;5100355;28;20051;-61
2021/01/11 06:59:39;;;;;;;19.63;10.23;;;7.20;90.40;;;;;;5110088;28;20043;-61
2021/01/11 07:02:22;;;;;;;19.27;8.82;;;7.10;90.40;;;;;;5111767;27;20110;-61
2021/01/11 07:04:48;;;;;;;32.38;14.88;;;7.10;90.40;;;;;;5111655;28;20428;-63
2021/01/11 07:07:24;;;;;;;26.45;12.65;;;7.20;90.40;;;;;;5112522;28;20493;-65
2021/01/11 07:09:55;;;;;;;24.65;12.70;;;7.10;90.40;;;;;;5109108;28;20418;-61
2021/01/11 07:12:21;;;;;;;26.75;12.88;;;7.20;90.40;;;;;;5111412;28;20055;-61
2021/01/11 07:14:55;;;;;;;20.83;10.35;;;7.10;90.40;;;;;;5108744;28;20023;-61
2021/01/11 07:17:35;;;;;;;23.10;11.43;;;7.10;90.40;;;;;;5111909;28;20027;-62
2021/01/11 07:20:01;;;;;;;27.42;14.63;;;7.10;90.50;;;;;;5110242;28;20046;-61
2021/01/11 07:22:27;;;;;;;22.90;9.73;;;7.20;90.50;;;;;;5111722;28;20481;-61
2021/01/11 07:24:52;;;;;;;26.85;14.13;;;7.10;90.40;;;;;;5111564;28;20402;-62
2021/01/11 07:27:18;;;;;;;25.20;11.38;;;7.10;90.50;;;;;;5108700;28;20027;-61
2021/01/11 07:29:44;;;;;;;28.27;13.50;;;7.10;90.50;;;;;;5108118;28;20046;-61
2021/01/11 07:32:10;;;;;;;20.33;10.70;;;7.10;90.50;;;;;;5109297;28;20036;-61
2021/01/11 07:34:35;;;;;;;20.17;9.68;;;7.00;90.50;;;;;;5110596;28;20023;-61
2021/01/11 07:37:01;;;;;;;23.40;11.15;;;7.10;90.60;;;;;;5110883;28;20051;-61
2021/01/11 07:39:35;;;;;;;24.42;12.68;;;7.10;90.50;;;;;;5112126;28;20069;-61
2021/01/11 07:42:03;;;;;;;28.83;16.38;;;7.10;90.70;;;;;;5109639;28;20023;-61
2021/01/11 07:44:34;;;;;;;33.38;16.55;;;7.10;90.50;;;;;;5109679;28;20031;-61
2021/01/11 07:47:04;;;;;;;23.60;10.75;;;7.10;90.50;;;;;;5109567;28;20027;-61
2021/01/11 07:49:33;;;;;;;28.05;13.80;;;7.00;90.50;;;;;;5103615;28;20070;-62
2021/01/11 07:52:10;;;;;;;30.95;14.77;;;7.00;90.60;;;;;;5101872;28;20494;-61
2021/01/11 07:54:37;;;;;;;32.50;15.73;;;7.00;90.60;;;;;;5100571;28;20027;-62
2021/01/11 07:57:09;;;;;;;25.40;12.52;;;7.00;90.70;;;;;;5097643;28;20390;-62
2021/01/11 07:59:35;;;;;;;30.65;14.32;;;7.00;90.70;;;;;;5105614;28;20026;-61
2021/01/11 08:02:03;;;;;;;32.15;14.70;;;7.00;90.80;;;;;;5101782;28;20031;-62
2021/01/11 08:04:36;;;;;;;26.75;11.93;;;7.00;90.70;;;;;;5099703;28;20031;-68
2021/01/11 08:07:06;;;;;;;29.38;15.45;;;7.00;90.70;;;;;;5112424;28;20028;-62
2021/01/11 08:09:32;;;;;;;29.45;14.95;;;7.00;90.70;;;;;;5101010;27;20083;-65
2021/01/11 08:12:15;;;;;;;26.13;13.65;;;7.00;90.70;;;;;;5106179;28;20042;-62
2021/01/11 08:14:41;;;;;;;26.58;13.90;;;7.00;90.70;;;;;;5107427;28;20490;-63
2021/01/11 08:17:18;;;;;;;28.77;13.43;;;7.00;90.60;;;;;;5101646;28;20028;-63
2021/01/11 08:20:00;;;;;;;25.10;12.02;;;7.00;90.60;;;;;;5105520;28;20046;-62
2021/01/11 08:22:28;;;;;;;28.65;12.85;;;7.10;90.60;;;;;;5106452;28;20027;-61
2021/01/11 08:24:56;;;;;;;25.75;11.88;;;7.00;90.90;;;;;;5104992;28;20126;-68
2021/01/11 08:27:46;;;;;;;27.10;12.13;;;7.00;90.60;;;;;;5109603;28;20023;-62
2021/01/11 08:30:16;;;;;;;26.85;13.90;;;7.00;90.60;;;;;;5100574;28;20404;-62
2021/01/11 08:32:43;;;;;;;23.95;11.23;;;7.00;90.60;;;;;;5100459;28;20031;-62
2021/01/11 08:35:15;;;;;;;27.48;13.35;;;7.00;90.50;;;;;;5104491;28;20027;-62
2021/01/11 08:37:42;;;;;;;29.35;15.07;;;7.00;90.60;;;;;;5104499;28;20439;-62
2021/01/11 08:40:09;;;;;;;28.05;13.60;;;7.00;90.60;;;;;;5107118;28;20027;-64
2021/01/11 08:42:36;;;;;;;20.90;10.32;;;7.00;90.60;;;;;;5102967;28;20061;-62
2021/01/11 08:45:32;;;;;;;29.30;12.98;;;7.00;90.60;;;;;;5100371;28;20040;-62
2021/01/11 08:48:11;;;;;;;29.60;15.25;;;7.00;90.70;;;;;;5105255;28;20391;-61
2021/01/11 08:50:40;;;;;;;24.17;13.25;;;7.00;90.60;;;;;;5109306;28;20089;-62
2021/01/11 08:53:25;;;;;;;30.15;14.30;;;7.00;90.70;;;;;;5105291;28;20023;-61
2021/01/11 08:56:04;;;;;;;26.05;13.85;;;7.00;90.60;;;;;;5103088;28;20085;-61
2021/01/11 08:58:32;;;;;;;25.58;11.95;;;7.00;90.60;;;;;;5098700;28;20059;-61
2021/01/11 09:01:11;;;;;;;28.25;13.02;;;7.00;90.60;;;;;;5102365;28;20387;-61
2021/01/11 09:03:42;;;;;;;18.63;9.65;;;7.00;90.60;;;;;;5099010;28;20020;-62
2021/01/11 09:06:09;;;;;;;28.83;13.15;;;7.00;90.60;;;;;;5101684;28;20754;-61
2021/01/11 09:08:35;;;;;;;26.75;12.40;;;7.00;90.60;;;;;;5106166;28;20111;-62
2021/01/11 09:11:08;;;;;;;30.13;13.65;;;7.10;90.60;;;;;;5108101;28;20154;-62
2021/01/11 09:13:34;;;;;;;;;;;7.10;90.70;;;;;;5100682;28;20376;-62
2021/01/11 09:16:20;;;;;;;26.00;12.38;;;7.00;90.60;;;;;;5091958;28;19915;-61
2021/01/11 09:18:45;;;;;;;30.88;14.27;;;7.00;90.60;;;;;;5098090;28;20047;-63
2021/01/11 09:21:23;;;;;;;27.98;12.35;;;7.00;90.60;;;;;;5094038;28;20032;-61
2021/01/11 09:23:50;;;;;;;20.92;11.27;;;7.00;90.70;;;;;;5105060;28;20027;-61
2021/01/11 09:26:16;;;;;;;19.88;10.55;;;7.00;90.70;;;;;;5106372;28;20058;-62
2021/01/11 09:28:42;;;;;;;28.92;13.75;;;7.10;90.70;;;;;;5102339;28;20039;-63
2021/01/11 09:31:08;;;;;;;27.63;14.70;;;7.10;90.70;;;;;;5102917;28;20048;-62
2021/01/11 09:33:33;;;;;;;19.45;9.90;;;7.10;90.70;;;;;;5109340;28;20028;-62
2021/01/11 09:35:59;;;;;;;27.70;12.73;;;7.00;90.70;;;;;;5108000;28;20111;-62
2021/01/11 09:38:24;;;;;;;28.58;17.10;;;7.00;90.70;;;;;;5111097;28;20026;-61
2021/01/11 09:40:50;;;;;;;24.67;13.63;;;7.00;90.80;;;;;;5111715;28;20073;-62
2021/01/11 09:43:16;;;;;;;22.65;11.70;;;7.00;90.70;;;;;;5097052;28;20387;-62
2021/01/11 09:45:42;;;;;;;25.20;12.32;;;7.00;90.80;;;;;;5100438;28;20039;-62
2021/01/11 09:48:08;;;;;;;22.15;11.73;;;7.00;90.80;;;;;;5099153;28;20482;-62
2021/01/11 09:50:35;;;;;;;23.08;13.23;;;7.00;90.80;;;;;;5096579;28;20119;-62
2021/01/11 09:53:01;;;;;;;17.65;8.82;;;7.00;90.80;;;;;;5100498;28;20055;-62
2021/01/11 09:55:26;;;;;;;21.15;10.52;;;7.00;90.90;;;;;;5096025;28;20036;-62
2021/01/11 09:57:52;;;;;;;20.27;11.80;;;7.00;90.90;;;;;;5102647;28;20049;-62
2021/01/11 10:00:18;;;;;;;20.05;10.68;;;7.00;90.80;;;;;;5101210;28;20100;-63
2021/01/11 10:02:50;;;;;;;21.88;11.43;;;7.00;90.90;;;;;;5100772;28;20169;-62
2021/01/11 10:05:17;;;;;;;22.00;10.65;;;7.10;90.90;;;;;;5099880;28;20403;-62
2021/01/11 10:07:44;;;;;;;22.95;10.55;;;7.10;90.90;;;;;;5096165;28;20154;-62
2021/01/11 10:10:11;;;;;;;26.42;12.82;;;7.10;90.90;;;;;;5099923;28;20073;-62
2021/01/11 10:12:36;;;;;;;25.63;13.57;;;7.10;90.90;;;;;;5094932;28;20031;-62
2021/01/11 10:15:03;;;;;;;22.48;11.82;;;7.10;90.90;;;;;;5100248;28;20036;-61
2021/01/11 10:17:29;;;;;;;24.65;12.02;;;7.10;90.90;;;;;;5094106;28;20059;-62
2021/01/11 10:19:55;;;;;;;17.58;8.73;;;7.10;91.00;;;;;;5101632;28;20023;-62
2021/01/11 10:22:20;;;;;;;18.58;11.00;;;7.10;90.90;;;;;;5108262;28;20147;-62
2021/01/11 10:24:50;;;;;;;19.25;11.13;;;7.10;90.90;;;;;;5102612;28;20414;-61
2021/01/11 10:27:18;;;;;;;26.20;11.57;;;7.10;90.90;;;;;;5100926;28;20418;-63
2021/01/11 10:29:44;;;;;;;15.93;8.27;;;7.10;90.90;;;;;;5105290;28;20031;-63
2021/01/11 10:32:10;;;;;;;17.33;9.20;;;7.10;90.90;;;;;;5108829;28;20048;-63
2021/01/11 10:34:35;;;;;;;11.32;6.53;;;7.10;90.90;;;;;;5103170;28;20118;-63
2021/01/11 10:37:01;;;;;;;21.45;10.60;;;7.10;91.00;;;;;;5107974;28;20020;-63
2021/01/11 10:39:27;;;;;;;18.08;8.68;;;7.20;91.00;;;;;;5104777;28;20050;-63
2021/01/11 10:41:57;;;;;;;18.25;8.38;;;7.20;91.00;;;;;;5102622;28;20051;-63
2021/01/11 10:44:23;;;;;;;17.23;8.52;;;7.20;90.90;;;;;;5096599;28;20043;-63
2021/01/11 10:46:50;;;;;;;10.55;6.75;;;7.20;91.00;;;;;;5111947;28;20112;-63
2021/01/11 10:49:16;;;;;;;14.13;7.80;;;7.20;91.00;;;;;;5102989;28;20019;-62
2021/01/11 10:51:41;;;;;;;12.07;7.20;;;7.10;91.00;;;;;;5105049;28;20448;-63
2021/01/11 10:54:07;;;;;;;15.18;7.90;;;7.20;91.10;;;;;;5102080;28;20024;-63
2021/01/11 10:56:33;;;;;;;16.35;7.57;;;7.20;91.10;;;;;;5106379;28;20020;-62
2021/01/11 10:58:58;;;;;;;14.32;7.68;;;7.20;91.30;;;;;;5110474;28;20077;-62
2021/01/11 11:01:25;;;;;;;8.13;4.80;;;7.20;91.40;;;;;;5095618;28;20024;-62
2021/01/11 11:03:50;;;;;;;11.88;5.05;;;7.20;91.10;;;;;;5100379;28;20028;-63
2021/01/11 11:06:20;;;;;;;14.85;6.20;;;7.20;91.00;;;;;;5096601;28;20043;-63
2021/01/11 11:08:46;;;;;;;10.80;5.10;;;7.30;91.00;;;;;;5105549;28;20766;-63
2021/01/11 11:11:12;;;;;;;13.38;6.90;;;7.30;90.90;;;;;;5095401;28;20179;-63
2021/01/11 11:13:42;;;;;;;11.02;6.43;;;7.30;90.90;;;;;;5093124;28;20032;-63
2021/01/11 11:16:10;;;;;;;15.50;7.38;;;7.30;90.90;;;;;;5094090;28;20034;-63
2021/01/11 11:18:36;;;;;;;12.85;6.43;;;7.30;90.90;;;;;;5093477;28;20020;-63
2021/01/11 11:21:09;;;;;;;14.43;6.95;;;7.20;91.00;;;;;;5093250;28;20028;-63
2021/01/11 11:23:35;;;;;;;13.90;7.60;;;7.30;91.10;;;;;;5093401;28;20024;-63
2021/01/11 11:26:02;;;;;;;10.77;5.95;;;7.30;91.10;;;;;;5093673;28;20032;-63
2021/01/11 11:28:29;;;;;;;12.07;5.20;;;7.30;91.10;;;;;;5092746;28;20028;-63
2021/01/11 11:30:55;;;;;;;9.65;5.05;;;7.20;91.10;;;;;;5093650;28;20040;-63
2021/01/11 11:33:21;;;;;;;17.05;7.22;;;7.30;91.10;;;;;;5093624;28;20039;-63
2021/01/11 11:35:47;;;;;;;13.32;6.32;;;7.30;91.00;;;;;;5094614;28;20035;-63
2021/01/11 11:38:13;;;;;;;11.80;5.57;;;7.30;91.00;;;;;;5095785;28;20036;-64
2021/01/11 11:40:39;;;;;;;12.23;6.25;;;7.30;91.10;;;;;;5098837;28;20104;-62
2021/01/11 11:43:05;;;;;;;11.45;5.70;;;7.30;91.10;;;;;;5100751;28;20027;-62
2021/01/11 11:45:32;;;;;;;13.35;6.05;;;7.20;91.10;;;;;;5107120;28;20043;-62
2021/01/11 11:47:58;;;;;;;10.40;5.57;;;7.30;91.10;;;;;;5098694;28;20032;-62
2021/01/11 11:50:23;;;;;;;11.63;5.85;;;7.30;91.10;;;;;;5107379;28;20494;-62
2021/01/11 11:52:49;;;;;;;9.98;5.80;;;7.30;91.10;;;;;;5107357;28;20021;-62
2021/01/11 11:55:15;;;;;;;10.82;5.38;;;7.30;91.00;;;;;;5107724;28;20115;-63
2021/01/11 11:57:42;;;;;;;13.30;5.65;;;7.40;91.00;;;;;;5105969;28;20496;-63
2021/01/11 12:00:09;;;;;;;8.82;4.88;;;7.40;91.00;;;;;;5110883;28;20157;-62
2021/01/11 12:02:35;;;;;;;9.15;5.85;;;7.40;91.00;;;;;;5105429;28;20016;-62
2021/01/11 12:05:01;;;;;;;10.57;5.13;;;7.40;91.00;;;;;;5097503;28;20395;-62
2021/01/11 12:07:27;;;;;;;8.73;4.63;;;7.40;91.00;;;;;;5107389;28;20034;-62
2021/01/11 12:09:54;;;;;;;10.07;5.47;;;7.40;91.00;;;;;;5103754;28;20390;-62
2021/01/11 12:12:20;;;;;;;8.77;5.45;;;7.50;90.90;;;;;;5110225;28;20028;-62
2021/01/11 12:14:46;;;;;;;10.75;5.25;;;7.50;90.90;;;;;;5105257;28;20135;-62
2021/01/11 12:17:12;;;;;;;8.27;5.18;;;7.50;90.80;;;;;;5109907;28;20566;-62
2021/01/11 12:19:37;;;;;;;10.05;5.15;;;7.50;90.80;;;;;;5110640;28;20501;-62
2021/01/11 12:22:10;;;;;;;14.30;6.20;;;7.50;90.70;;;;;;5094037;28;20046;-62
2021/01/11 12:24:39;;;;;;;9.55;4.60;;;7.60;90.70;;;;;;5102749;28;20031;-62
2021/01/11 12:27:05;;;;;;;6.85;3.47;;;7.60;90.70;;;;;;5101416;28;20055;-62
2021/01/11 12:29:31;;;;;;;8.18;4.85;;;7.60;90.60;;;;;;5099835;28;20028;-62
2021/01/11 12:31:57;;;;;;;9.30;4.93;;;7.60;90.50;;;;;;5096894;28;20054;-62
2021/01/11 12:34:22;;;;;;;12.10;5.53;;;7.70;90.50;;;;;;5095059;28;20122;-62
2021/01/11 12:36:48;;;;;;;11.77;5.35;;;7.70;90.40;;;;;;5096547;28;20027;-62
2021/01/11 12:39:14;;;;;;;11.68;5.13;;;7.70;90.40;;;;;;5095179;28;20028;-62
2021/01/11 12:41:40;;;;;;;11.35;4.80;;;7.70;90.40;;;;;;5096646;28;20032;-62
2021/01/11 12:44:10;;;;;;;9.82;4.97;;;7.70;90.30;;;;;;5094693;28;20024;-62
2021/01/11 12:46:36;;;;;;;9.05;4.25;;;7.60;90.40;;;;;;5106004;28;20530;-62
2021/01/11 12:49:03;;;;;;;11.30;4.32;;;7.70;90.30;;;;;;5109791;28;20031;-62